Airfield :
LOGIN :

Register | Disclaimer

   EN    FR    IT 

 










Legend :    VFR   Marginal VFR   IFR   Intensive IFR   Very Intensive IFR
Visi :
Ceiling :
>= 8 km
>= 3000ft
5 to 8 km
1000 to 3000 ft
1500m to 5 km
500 to 1000 ft
800 to 1500m
200 to 500 ft
< 800m
< 200 ft
Symbols :   Thunderstorms  Fog  Heavy snow  Heavy precipitations  Wind > 20 kt
SIGMETs :     Misc.  Thunderstorms  Icing  Turbulence  Mountain Waves  Volcanic Ashes







- Airport Elevation : 375 ft
- IATA code : MST


EHBK - Maastricht Aachen

CURRENT METAR :
  • 200155Z AUTO 21006KT 4200 BR FEW048 10/10 Q1021

EXPIRED METARs :
  • 200125Z AUTO 20005KT 4500 BR NSC 10/10 Q1021
  • 200055Z AUTO 21005KT 5000 BR NSC 10/09 Q1021
  • 200025Z AUTO 21006KT 4800 BR FEW028 10/09 Q1021
  • 192355Z AUTO 22005KT 6000 FEW030 09/09 Q1021
  • 192325Z AUTO 22005KT 7000 NSC 09/09 Q1021
  • 192255Z AUTO 22004KT 9000 NSC 09/09 Q1021

TAF TAF EHBK
Valid from the 20 at 00:00 until the 21 at 06:00 UTC


192314Z 2000/2106 23004KT 7000 SCT040
BECMG 2000/2003 4000 BR BKN007
PROB40 2001/2005 1200 BCFG BKN004
PROB30
TEMPO 2004/2008 -SHRA SCT020TCU
BECMG 2006/2009 26010KT 9999 NSW SCT030
BECMG 2015/2018 20006KT
No reported NOTAMs for that airfield.



MET'MAP, your aeronautical weather chart ! - Copyright ORBIFLY December 2007 - Disclaimer

ORBIFLY MET'MAP TEAM :

Programming & Development : Alexandra Zaïnal
Concept & Development : Baudouin d'Aumeries
Co-Development & Prog : Marc-Olivier Méhu
Technical & hardware support : Manuel Goepfert

Contact : metmap@orbifly.com




SOURCES & CREDITS :

   NOAA